sensor_id;sensor_type;location;lat;lon;timestamp;P1;durP1;ratioP1;P2;durP2;ratioP2
15331;SDS011;7766;51.534;6.722;2022-11-15T07:25:47;8.33;;;5.40;;
15331;SDS011;7766;51.534;6.722;2022-11-15T07:26:48;11.50;;;6.47;;
15331;SDS011;7766;51.534;6.722;2022-11-15T07:27:58;13.63;;;7.17;;
15331;SDS011;7766;51.534;6.722;2022-11-15T07:29:00;12.47;;;6.27;;
15331;SDS011;7766;51.534;6.722;2022-11-15T07:30:01;11.83;;;6.60;;
15331;SDS011;7766;51.534;6.722;2022-11-15T07:31:04;12.23;;;6.33;;
15331;SDS011;7766;51.534;6.722;2022-11-15T07:32:07;10.50;;;5.97;;
15331;SDS011;7766;51.534;6.722;2022-11-15T07:33:07;10.97;;;6.20;;
15331;SDS011;7766;51.534;6.722;2022-11-15T07:34:08;8.90;;;5.57;;
15331;SDS011;7766;51.534;6.722;2022-11-15T07:35:09;11.40;;;5.70;;
15331;SDS011;7766;51.534;6.722;2022-11-15T07:36:11;7.03;;;4.70;;
15331;SDS011;7766;51.534;6.722;2022-11-15T07:37:12;7.73;;;5.20;;
15331;SDS011;7766;51.534;6.722;2022-11-15T07:38:13;8.37;;;5.07;;
15331;SDS011;7766;51.534;6.722;2022-11-15T07:39:15;8.47;;;5.60;;
15331;SDS011;7766;51.534;6.722;2022-11-15T07:40:16;8.70;;;5.13;;
15331;SDS011;7766;51.534;6.722;2022-11-15T07:41:17;10.57;;;5.33;;
15331;SDS011;7766;51.534;6.722;2022-11-15T07:42:18;8.60;;;5.17;;
15331;SDS011;7766;51.534;6.722;2022-11-15T07:43:38;12.17;;;5.50;;
15331;SDS011;7766;51.534;6.722;2022-11-15T07:44:39;8.93;;;5.60;;
15331;SDS011;7766;51.534;6.722;2022-11-15T07:45:40;8.07;;;5.23;;
15331;SDS011;7766;51.534;6.722;2022-11-15T07:46:42;7.00;;;5.17;;
15331;SDS011;7766;51.534;6.722;2022-11-15T07:47:47;5.67;;;2.97;;
15331;SDS011;7766;51.534;6.722;2022-11-15T07:48:49;8.50;;;4.93;;
15331;SDS011;7766;51.534;6.722;2022-11-15T07:49:49;12.53;;;5.13;;
15331;SDS011;7766;51.534;6.722;2022-11-15T07:50:51;8.87;;;5.40;;
15331;SDS011;7766;51.534;6.722;2022-11-15T07:51:51;9.23;;;5.03;;
15331;SDS011;7766;51.534;6.722;2022-11-15T07:52:53;8.60;;;5.53;;
15331;SDS011;7766;51.534;6.722;2022-11-15T07:53:58;6.40;;;4.50;;
15331;SDS011;7766;51.534;6.722;2022-11-15T07:54:59;8.73;;;4.73;;
15331;SDS011;7766;51.534;6.722;2022-11-15T07:56:00;7.67;;;5.07;;
15331;SDS011;7766;51.534;6.722;2022-11-15T07:57:01;10.47;;;4.90;;
15331;SDS011;7766;51.534;6.722;2022-11-15T07:58:02;5.70;;;4.70;;
15331;SDS011;7766;51.534;6.722;2022-11-15T07:59:08;5.73;;;4.97;;
15331;SDS011;7766;51.534;6.722;2022-11-15T08:00:09;6.13;;;4.60;;
15331;SDS011;7766;51.534;6.722;2022-11-15T08:01:10;4.97;;;3.30;;
15331;SDS011;7766;51.534;6.722;2022-11-15T08:02:12;6.03;;;3.50;;
15331;SDS011;7766;51.534;6.722;2022-11-15T08:03:14;4.00;;;3.00;;
15331;SDS011;7766;51.534;6.722;2022-11-15T08:04:16;4.20;;;2.90;;
15331;SDS011;7766;51.534;6.722;2022-11-15T08:05:17;3.83;;;2.40;;
15331;SDS011;7766;51.534;6.722;2022-11-15T08:06:18;5.47;;;2.90;;
15331;SDS011;7766;51.534;6.722;2022-11-15T08:07:19;6.27;;;3.30;;
15331;SDS011;7766;51.534;6.722;2022-11-15T08:08:20;4.20;;;3.10;;
15331;SDS011;7766;51.534;6.722;2022-11-15T08:09:21;4.47;;;3.20;;
15331;SDS011;7766;51.534;6.722;2022-11-15T08:10:22;6.07;;;3.37;;
15331;SDS011;7766;51.534;6.722;2022-11-15T08:11:23;5.07;;;2.97;;
15331;SDS011;7766;51.534;6.722;2022-11-15T08:12:24;8.03;;;3.13;;
15331;SDS011;7766;51.534;6.722;2022-11-15T08:13:25;5.53;;;3.80;;
15331;SDS011;7766;51.534;6.722;2022-11-15T08:14:26;6.90;;;3.07;;
15331;SDS011;7766;51.534;6.722;2022-11-15T08:15:27;6.47;;;2.50;;
15331;SDS011;7766;51.534;6.722;2022-11-15T08:16:29;3.30;;;2.50;;
15331;SDS011;7766;51.534;6.722;2022-11-15T08:17:30;4.67;;;2.60;;
15331;SDS011;7766;51.534;6.722;2022-11-15T08:18:32;3.33;;;2.10;;
15331;SDS011;7766;51.534;6.722;2022-11-15T08:19:34;4.07;;;2.20;;
15331;SDS011;7766;51.534;6.722;2022-11-15T08:20:35;3.63;;;2.27;;
15331;SDS011;7766;51.534;6.722;2022-11-15T08:21:36;9.47;;;2.70;;
15331;SDS011;7766;51.534;6.722;2022-11-15T08:22:37;5.13;;;3.27;;
15331;SDS011;7766;51.534;6.722;2022-11-15T08:23:38;6.40;;;3.30;;
15331;SDS011;7766;51.534;6.722;2022-11-15T08:24:39;5.73;;;2.90;;
15331;SDS011;7766;51.534;6.722;2022-11-15T08:25:40;4.60;;;2.43;;
15331;SDS011;7766;51.534;6.722;2022-11-15T08:26:40;5.27;;;2.67;;
15331;SDS011;7766;51.534;6.722;2022-11-15T08:27:42;4.40;;;2.20;;
15331;SDS011;7766;51.534;6.722;2022-11-15T08:28:42;4.73;;;2.50;;
15331;SDS011;7766;51.534;6.722;2022-11-15T08:29:44;5.30;;;1.97;;
15331;SDS011;7766;51.534;6.722;2022-11-15T08:30:46;3.43;;;2.07;;
15331;SDS011;7766;51.534;6.722;2022-11-15T08:31:47;4.00;;;2.40;;
15331;SDS011;7766;51.534;6.722;2022-11-15T08:32:50;2.70;;;1.30;;
15331;SDS011;7766;51.534;6.722;2022-11-15T08:33:52;2.07;;;1.40;;
15331;SDS011;7766;51.534;6.722;2022-11-15T08:34:52;1.13;;;0.90;;
15331;SDS011;7766;51.534;6.722;2022-11-15T08:35:55;1.50;;;1.10;;
15331;SDS011;7766;51.534;6.722;2022-11-15T08:36:57;3.07;;;1.37;;
15331;SDS011;7766;51.534;6.722;2022-11-15T08:37:58;2.30;;;1.20;;
15331;SDS011;7766;51.534;6.722;2022-11-15T08:38:59;1.33;;;0.97;;
15331;SDS011;7766;51.534;6.722;2022-11-15T08:40:00;3.07;;;1.23;;
15331;SDS011;7766;51.534;6.722;2022-11-15T08:41:01;1.27;;;1.13;;
15331;SDS011;7766;51.534;6.722;2022-11-15T08:42:06;1.63;;;1.30;;
15331;SDS011;7766;51.534;6.722;2022-11-15T08:43:07;2.80;;;1.30;;
15331;SDS011;7766;51.534;6.722;2022-11-15T08:44:07;1.37;;;1.17;;
15331;SDS011;7766;51.534;6.722;2022-11-15T08:45:08;1.87;;;1.23;;
15331;SDS011;7766;51.534;6.722;2022-11-15T08:46:11;4.33;;;1.60;;
15331;SDS011;7766;51.534;6.722;2022-11-15T08:47:13;1.33;;;1.23;;
15331;SDS011;7766;51.534;6.722;2022-11-15T08:48:14;1.17;;;1.00;;
15331;SDS011;7766;51.534;6.722;2022-11-15T08:49:16;3.20;;;1.20;;
15331;SDS011;7766;51.534;6.722;2022-11-15T08:50:17;1.30;;;1.00;;
15331;SDS011;7766;51.534;6.722;2022-11-15T08:51:18;1.97;;;1.13;;
15331;SDS011;7766;51.534;6.722;2022-11-15T08:52:19;1.93;;;1.27;;
15331;SDS011;7766;51.534;6.722;2022-11-15T08:53:20;2.53;;;1.10;;
15331;SDS011;7766;51.534;6.722;2022-11-15T08:54:21;2.23;;;1.40;;
15331;SDS011;7766;51.534;6.722;2022-11-15T08:55:21;2.43;;;1.10;;
15331;SDS011;7766;51.534;6.722;2022-11-15T08:56:22;1.20;;;1.00;;
15331;SDS011;7766;51.534;6.722;2022-11-15T08:57:23;3.03;;;1.30;;
15331;SDS011;7766;51.534;6.722;2022-11-15T08:58:24;1.83;;;1.40;;
15331;SDS011;7766;51.534;6.722;2022-11-15T08:59:25;1.63;;;1.30;;
15331;SDS011;7766;51.534;6.722;2022-11-15T09:00:26;1.03;;;0.97;;
15331;SDS011;7766;51.534;6.722;2022-11-15T09:01:27;1.93;;;1.00;;
15331;SDS011;7766;51.534;6.722;2022-11-15T09:02:28;1.60;;;1.20;;
15331;SDS011;7766;51.534;6.722;2022-11-15T09:03:30;1.53;;;1.10;;
15331;SDS011;7766;51.534;6.722;2022-11-15T09:04:31;3.00;;;1.10;;
15331;SDS011;7766;51.534;6.722;2022-11-15T09:05:32;3.63;;;1.30;;
15331;SDS011;7766;51.534;6.722;2022-11-15T09:06:36;3.23;;;0.97;;
15331;SDS011;7766;51.534;6.722;2022-11-15T09:07:37;3.47;;;1.20;;
15331;SDS011;7766;51.534;6.722;2022-11-15T09:08:38;1.17;;;0.90;;
15331;SDS011;7766;51.534;6.722;2022-11-15T09:09:39;4.00;;;1.40;;
15331;SDS011;7766;51.534;6.722;2022-11-15T09:10:40;1.30;;;1.10;;
15331;SDS011;7766;51.534;6.722;2022-11-15T09:11:41;2.50;;;1.03;;
15331;SDS011;7766;51.534;6.722;2022-11-15T09:12:41;1.63;;;1.10;;
15331;SDS011;7766;51.534;6.722;2022-11-15T09:13:43;2.90;;;1.00;;
15331;SDS011;7766;51.534;6.722;2022-11-15T09:14:44;1.83;;;1.00;;
15331;SDS011;7766;51.534;6.722;2022-11-15T09:15:45;2.13;;;1.17;;
15331;SDS011;7766;51.534;6.722;2022-11-15T09:16:46;1.73;;;1.10;;
15331;SDS011;7766;51.534;6.722;2022-11-15T09:17:47;2.90;;;1.00;;
15331;SDS011;7766;51.534;6.722;2022-11-15T09:18:48;1.50;;;0.93;;
15331;SDS011;7766;51.534;6.722;2022-11-15T09:19:49;1.73;;;1.30;;
15331;SDS011;7766;51.534;6.722;2022-11-15T09:20:50;2.63;;;1.50;;
15331;SDS011;7766;51.534;6.722;2022-11-15T09:21:51;2.63;;;1.80;;
15331;SDS011;7766;51.534;6.722;2022-11-15T09:22:52;2.57;;;1.80;;
15331;SDS011;7766;51.534;6.722;2022-11-15T09:23:53;3.03;;;1.60;;
15331;SDS011;7766;51.534;6.722;2022-11-15T09:24:54;2.70;;;2.00;;
15331;SDS011;7766;51.534;6.722;2022-11-15T09:26:01;3.03;;;1.80;;
15331;SDS011;7766;51.534;6.722;2022-11-15T09:27:04;4.10;;;2.17;;
15331;SDS011;7766;51.534;6.722;2022-11-15T09:28:06;4.33;;;2.33;;
15331;SDS011;7766;51.534;6.722;2022-11-15T09:29:08;4.93;;;2.10;;
15331;SDS011;7766;51.534;6.722;2022-11-15T09:30:09;3.70;;;1.87;;
15331;SDS011;7766;51.534;6.722;2022-11-15T09:31:10;4.93;;;2.53;;
15331;SDS011;7766;51.534;6.722;2022-11-15T09:32:11;4.10;;;2.60;;
15331;SDS011;7766;51.534;6.722;2022-11-15T09:33:12;4.90;;;2.20;;
15331;SDS011;7766;51.534;6.722;2022-11-15T09:34:13;6.00;;;2.67;;
15331;SDS011;7766;51.534;6.722;2022-11-15T09:35:14;7.23;;;2.70;;
15331;SDS011;7766;51.534;6.722;2022-11-15T09:36:15;5.17;;;2.67;;
15331;SDS011;7766;51.534;6.722;2022-11-15T09:37:16;5.67;;;2.50;;
15331;SDS011;7766;51.534;6.722;2022-11-15T09:38:17;6.73;;;3.10;;
15331;SDS011;7766;51.534;6.722;2022-11-15T09:39:19;6.00;;;2.77;;
15331;SDS011;7766;51.534;6.722;2022-11-15T09:40:20;6.87;;;2.60;;
15331;SDS011;7766;51.534;6.722;2022-11-15T09:48:52;8.87;;;3.63;;
15331;SDS011;7766;51.534;6.722;2022-11-15T09:49:53;6.03;;;3.23;;
15331;SDS011;7766;51.534;6.722;2022-11-15T09:50:56;8.20;;;3.00;;
15331;SDS011;7766;51.534;6.722;2022-11-15T09:52:00;5.20;;;2.70;;
15331;SDS011;7766;51.534;6.722;2022-11-15T09:53:02;5.43;;;3.10;;
15331;SDS011;7766;51.534;6.722;2022-11-15T09:54:05;6.27;;;3.07;;
15331;SDS011;7766;51.534;6.722;2022-11-15T09:55:21;4.57;;;2.83;;
15331;SDS011;7766;51.534;6.722;2022-11-15T09:56:40;5.93;;;2.97;;
15331;SDS011;7766;51.534;6.722;2022-11-15T09:57:58;5.17;;;3.20;;
15331;SDS011;7766;51.534;6.722;2022-11-15T10:00:39;4.27;;;2.67;;
15331;SDS011;7766;51.534;6.722;2022-11-15T10:03:17;4.10;;;2.93;;
15331;SDS011;7766;51.534;6.722;2022-11-15T10:04:30;3.10;;;2.17;;
15331;SDS011;7766;51.534;6.722;2022-11-15T10:05:31;3.03;;;2.10;;
15331;SDS011;7766;51.534;6.722;2022-11-15T10:06:44;7.30;;;2.83;;
15331;SDS011;7766;51.534;6.722;2022-11-15T10:08:10;4.27;;;2.43;;
15331;SDS011;7766;51.534;6.722;2022-11-15T10:09:36;3.37;;;2.20;;
15331;SDS011;7766;51.534;6.722;2022-11-15T10:10:43;4.43;;;2.33;;
15331;SDS011;7766;51.534;6.722;2022-11-15T10:11:46;5.83;;;2.50;;
15331;SDS011;7766;51.534;6.722;2022-11-15T10:12:48;3.47;;;2.40;;
15331;SDS011;7766;51.534;6.722;2022-11-15T10:13:53;5.03;;;2.40;;
15331;SDS011;7766;51.534;6.722;2022-11-15T10:15:16;3.27;;;2.20;;
15331;SDS011;7766;51.534;6.722;2022-11-15T10:20:10;6.37;;;2.60;;
15331;SDS011;7766;51.534;6.722;2022-11-15T10:21:29;4.80;;;2.40;;
15331;SDS011;7766;51.534;6.722;2022-11-15T10:22:46;3.67;;;2.73;;
15331;SDS011;7766;51.534;6.722;2022-11-15T10:23:50;6.23;;;3.77;;
15331;SDS011;7766;51.534;6.722;2022-11-15T10:26:11;9.47;;;4.50;;
15331;SDS011;7766;51.534;6.722;2022-11-15T10:27:17;7.90;;;4.97;;
15331;SDS011;7766;51.534;6.722;2022-11-15T10:28:22;5.20;;;2.43;;
15331;SDS011;7766;51.534;6.722;2022-11-15T10:29:28;5.07;;;1.70;;
15331;SDS011;7766;51.534;6.722;2022-11-15T10:30:36;4.43;;;1.70;;
15331;SDS011;7766;51.534;6.722;2022-11-15T10:31:40;3.23;;;2.00;;
15331;SDS011;7766;51.534;6.722;2022-11-15T10:32:42;6.80;;;1.90;;
15331;SDS011;7766;51.534;6.722;2022-11-15T10:33:45;3.90;;;1.93;;
15331;SDS011;7766;51.534;6.722;2022-11-15T10:34:47;4.77;;;1.77;;
15331;SDS011;7766;51.534;6.722;2022-11-15T10:36:13;3.97;;;1.90;;
15331;SDS011;7766;51.534;6.722;2022-11-15T10:37:13;2.57;;;1.67;;
15331;SDS011;7766;51.534;6.722;2022-11-15T10:38:14;3.93;;;1.83;;
15331;SDS011;7766;51.534;6.722;2022-11-15T10:39:15;2.27;;;1.47;;
15331;SDS011;7766;51.534;6.722;2022-11-15T10:40:18;3.90;;;1.83;;
15331;SDS011;7766;51.534;6.722;2022-11-15T10:42:29;1.73;;;1.43;;
15331;SDS011;7766;51.534;6.722;2022-11-15T10:43:30;1.97;;;1.20;;
15331;SDS011;7766;51.534;6.722;2022-11-15T10:44:31;2.73;;;1.60;;
15331;SDS011;7766;51.534;6.722;2022-11-15T10:45:41;2.60;;;1.53;;
15331;SDS011;7766;51.534;6.722;2022-11-15T10:46:43;5.17;;;1.60;;
15331;SDS011;7766;51.534;6.722;2022-11-15T10:47:50;2.23;;;1.43;;
15331;SDS011;7766;51.534;6.722;2022-11-15T10:48:51;4.50;;;1.50;;
15331;SDS011;7766;51.534;6.722;2022-11-15T10:49:59;1.77;;;1.47;;
15331;SDS011;7766;51.534;6.722;2022-11-15T10:51:03;5.93;;;1.60;;
15331;SDS011;7766;51.534;6.722;2022-11-15T10:52:28;2.40;;;1.50;;
15331;SDS011;7766;51.534;6.722;2022-11-15T10:53:33;1.77;;;1.57;;
15331;SDS011;7766;51.534;6.722;2022-11-15T10:54:45;3.77;;;1.27;;
15331;SDS011;7766;51.534;6.722;2022-11-15T10:55:54;7.07;;;1.83;;
15331;SDS011;7766;51.534;6.722;2022-11-15T10:56:59;6.20;;;2.00;;
15331;SDS011;7766;51.534;6.722;2022-11-15T10:58:22;3.73;;;1.90;;
15331;SDS011;7766;51.534;6.722;2022-11-15T10:59:31;9.50;;;5.57;;
15331;SDS011;7766;51.534;6.722;2022-11-15T11:00:36;5.67;;;2.07;;
15331;SDS011;7766;51.534;6.722;2022-11-15T11:01:47;5.43;;;2.20;;
15331;SDS011;7766;51.534;6.722;2022-11-15T11:05:04;5.70;;;2.17;;
15331;SDS011;7766;51.534;6.722;2022-11-15T11:06:24;4.43;;;2.00;;
15331;SDS011;7766;51.534;6.722;2022-11-15T11:07:27;4.53;;;2.20;;
15331;SDS011;7766;51.534;6.722;2022-11-15T11:08:30;5.00;;;2.10;;
15331;SDS011;7766;51.534;6.722;2022-11-15T11:09:33;5.93;;;2.20;;
15331;SDS011;7766;51.534;6.722;2022-11-15T11:10:36;3.50;;;2.13;;
15331;SDS011;7766;51.534;6.722;2022-11-15T11:11:47;3.00;;;1.83;;
15331;SDS011;7766;51.534;6.722;2022-11-15T11:12:50;4.63;;;2.13;;
15331;SDS011;7766;51.534;6.722;2022-11-15T11:13:51;4.30;;;2.40;;
15331;SDS011;7766;51.534;6.722;2022-11-15T11:14:52;4.43;;;1.93;;
15331;SDS011;7766;51.534;6.722;2022-11-15T11:16:09;5.90;;;1.87;;
15331;SDS011;7766;51.534;6.722;2022-11-15T11:23:26;6.13;;;2.20;;
15331;SDS011;7766;51.534;6.722;2022-11-15T11:27:51;2.93;;;1.90;;
15331;SDS011;7766;51.534;6.722;2022-11-15T11:30:08;5.30;;;1.73;;
15331;SDS011;7766;51.534;6.722;2022-11-15T11:36:23;3.37;;;2.00;;
15331;SDS011;7766;51.534;6.722;2022-11-15T11:40:29;2.57;;;1.40;;
15331;SDS011;7766;51.534;6.722;2022-11-15T11:41:40;6.90;;;1.53;;
15331;SDS011;7766;51.534;6.722;2022-11-15T11:44:54;2.63;;;1.60;;
15331;SDS011;7766;51.534;6.722;2022-11-15T11:49:10;2.90;;;1.40;;
15331;SDS011;7766;51.534;6.722;2022-11-15T11:50:30;4.43;;;1.60;;
15331;SDS011;7766;51.534;6.722;2022-11-15T11:51:39;3.73;;;2.00;;
15331;SDS011;7766;51.534;6.722;2022-11-15T11:52:59;3.03;;;1.50;;
15331;SDS011;7766;51.534;6.722;2022-11-15T11:54:22;5.07;;;1.50;;
15331;SDS011;7766;51.534;6.722;2022-11-15T11:55:49;3.07;;;1.40;;
15331;SDS011;7766;51.534;6.722;2022-11-15T11:56:56;5.00;;;1.60;;
15331;SDS011;7766;51.534;6.722;2022-11-15T12:00:51;3.93;;;1.13;;
15331;SDS011;7766;51.534;6.722;2022-11-15T12:02:02;2.43;;;1.23;;
15331;SDS011;7766;51.534;6.722;2022-11-15T12:03:21;3.87;;;1.30;;
15331;SDS011;7766;51.534;6.722;2022-11-15T12:04:41;3.00;;;1.70;;
15331;SDS011;7766;51.534;6.722;2022-11-15T12:05:54;2.90;;;1.30;;
15331;SDS011;7766;51.534;6.722;2022-11-15T12:07:07;3.20;;;1.20;;
15331;SDS011;7766;51.534;6.722;2022-11-15T12:09:44;3.53;;;0.97;;
15331;SDS011;7766;51.534;6.722;2022-11-15T12:10:57;2.47;;;1.20;;
15331;SDS011;7766;51.534;6.722;2022-11-15T12:13:10;1.93;;;1.17;;
15331;SDS011;7766;51.534;6.722;2022-11-15T12:14:22;8.07;;;5.03;;
15331;SDS011;7766;51.534;6.722;2022-11-15T12:15:42;4.57;;;1.90;;
15331;SDS011;7766;51.534;6.722;2022-11-15T12:16:52;13.33;;;7.13;;
15331;SDS011;7766;51.534;6.722;2022-11-15T12:17:54;4.77;;;1.90;;
15331;SDS011;7766;51.534;6.722;2022-11-15T12:18:58;2.40;;;1.30;;
15331;SDS011;7766;51.534;6.722;2022-11-15T12:20:03;3.63;;;1.00;;
15331;SDS011;7766;51.534;6.722;2022-11-15T12:21:16;1.40;;;0.90;;
15331;SDS011;7766;51.534;6.722;2022-11-15T12:23:48;1.70;;;0.93;;
15331;SDS011;7766;51.534;6.722;2022-11-15T12:24:55;4.43;;;1.50;;
15331;SDS011;7766;51.534;6.722;2022-11-15T12:26:03;2.20;;;1.17;;
15331;SDS011;7766;51.534;6.722;2022-11-15T12:27:20;3.07;;;1.20;;
15331;SDS011;7766;51.534;6.722;2022-11-15T12:28:52;4.50;;;0.80;;
15331;SDS011;7766;51.534;6.722;2022-11-15T12:30:00;2.00;;;1.17;;
15331;SDS011;7766;51.534;6.722;2022-11-15T12:31:18;4.13;;;1.33;;
15331;SDS011;7766;51.534;6.722;2022-11-15T12:32:31;1.87;;;1.13;;
15331;SDS011;7766;51.534;6.722;2022-11-15T12:33:39;3.87;;;1.40;;
15331;SDS011;7766;51.534;6.722;2022-11-15T12:34:43;3.60;;;1.23;;
15331;SDS011;7766;51.534;6.722;2022-11-15T12:35:56;4.97;;;1.40;;
15331;SDS011;7766;51.534;6.722;2022-11-15T12:37:32;2.73;;;1.37;;
15331;SDS011;7766;51.534;6.722;2022-11-15T12:38:57;4.33;;;2.23;;
15331;SDS011;7766;51.534;6.722;2022-11-15T12:41:12;5.97;;;2.60;;
15331;SDS011;7766;51.534;6.722;2022-11-15T12:45:46;8.47;;;3.57;;
15331;SDS011;7766;51.534;6.722;2022-11-15T12:47:48;6.30;;;2.63;;
15331;SDS011;7766;51.534;6.722;2022-11-15T12:48:53;8.83;;;2.10;;
15331;SDS011;7766;51.534;6.722;2022-11-15T12:49:56;3.60;;;1.87;;
15331;SDS011;7766;51.534;6.722;2022-11-15T12:50:57;6.40;;;1.83;;
15331;SDS011;7766;51.534;6.722;2022-11-15T12:55:31;5.80;;;2.17;;
15331;SDS011;7766;51.534;6.722;2022-11-15T12:56:33;4.43;;;1.90;;
15331;SDS011;7766;51.534;6.722;2022-11-15T12:57:35;3.97;;;1.70;;
15331;SDS011;7766;51.534;6.722;2022-11-15T12:58:54;3.60;;;1.50;;
15331;SDS011;7766;51.534;6.722;2022-11-15T12:59:57;4.23;;;1.20;;
15331;SDS011;7766;51.534;6.722;2022-11-15T13:01:06;6.23;;;1.40;;
15331;SDS011;7766;51.534;6.722;2022-11-15T13:02:17;6.20;;;1.27;;
15331;SDS011;7766;51.534;6.722;2022-11-15T13:03:30;3.13;;;1.10;;
15331;SDS011;7766;51.534;6.722;2022-11-15T13:04:31;3.83;;;1.40;;
15331;SDS011;7766;51.534;6.722;2022-11-15T13:05:51;9.60;;;1.57;;
15331;SDS011;7766;51.534;6.722;2022-11-15T13:08:03;7.13;;;1.87;;
15331;SDS011;7766;51.534;6.722;2022-11-15T13:09:49;5.23;;;1.57;;
15331;SDS011;7766;51.534;6.722;2022-11-15T13:10:33;4.93;;;1.43;;
15331;SDS011;7766;51.534;6.722;2022-11-15T13:11:44;2.23;;;0.90;;
15331;SDS011;7766;51.534;6.722;2022-11-15T13:12:49;1.23;;;0.80;;
15331;SDS011;7766;51.534;6.722;2022-11-15T13:13:51;4.67;;;1.13;;
15331;SDS011;7766;51.534;6.722;2022-11-15T13:14:59;4.40;;;0.87;;
15331;SDS011;7766;51.534;6.722;2022-11-15T13:16:21;6.07;;;1.20;;
15331;SDS011;7766;51.534;6.722;2022-11-15T13:18:38;2.63;;;1.10;;
15331;SDS011;7766;51.534;6.722;2022-11-15T13:19:40;3.60;;;0.77;;
15331;SDS011;7766;51.534;6.722;2022-11-15T13:20:44;4.77;;;1.23;;
15331;SDS011;7766;51.534;6.722;2022-11-15T13:21:47;3.97;;;1.27;;
15331;SDS011;7766;51.534;6.722;2022-11-15T13:23:17;3.53;;;0.93;;
15331;SDS011;7766;51.534;6.722;2022-11-15T13:24:18;5.07;;;1.40;;
15331;SDS011;7766;51.534;6.722;2022-11-15T13:26:53;3.97;;;1.80;;
15331;SDS011;7766;51.534;6.722;2022-11-15T13:27:54;2.23;;;1.03;;
15331;SDS011;7766;51.534;6.722;2022-11-15T13:28:57;2.63;;;1.10;;
15331;SDS011;7766;51.534;6.722;2022-11-15T13:30:00;1.20;;;0.87;;
15331;SDS011;7766;51.534;6.722;2022-11-15T13:31:13;3.47;;;1.10;;
15331;SDS011;7766;51.534;6.722;2022-11-15T13:32:21;2.27;;;1.03;;
15331;SDS011;7766;51.534;6.722;2022-11-15T13:33:33;4.70;;;1.20;;
15331;SDS011;7766;51.534;6.722;2022-11-15T13:34:36;2.43;;;1.10;;
15331;SDS011;7766;51.534;6.722;2022-11-15T13:35:41;2.57;;;0.93;;
15331;SDS011;7766;51.534;6.722;2022-11-15T13:36:45;2.67;;;1.00;;
15331;SDS011;7766;51.534;6.722;2022-11-15T13:37:47;3.00;;;1.27;;
15331;SDS011;7766;51.534;6.722;2022-11-15T13:38:56;4.43;;;1.40;;
15331;SDS011;7766;51.534;6.722;2022-11-15T13:41:31;7.30;;;1.87;;
15331;SDS011;7766;51.534;6.722;2022-11-15T13:42:34;7.63;;;2.07;;
15331;SDS011;7766;51.534;6.722;2022-11-15T13:43:35;6.37;;;1.87;;
15331;SDS011;7766;51.534;6.722;2022-11-15T13:44:36;5.40;;;1.57;;
15331;SDS011;7766;51.534;6.722;2022-11-15T13:45:37;6.23;;;2.40;;
15331;SDS011;7766;51.534;6.722;2022-11-15T13:46:39;4.37;;;1.90;;
15331;SDS011;7766;51.534;6.722;2022-11-15T13:47:40;8.10;;;2.47;;
15331;SDS011;7766;51.534;6.722;2022-11-15T13:48:42;5.57;;;1.87;;
15331;SDS011;7766;51.534;6.722;2022-11-15T13:49:44;4.00;;;1.30;;
15331;SDS011;7766;51.534;6.722;2022-11-15T13:50:45;3.23;;;1.13;;
15331;SDS011;7766;51.534;6.722;2022-11-15T13:52:50;5.10;;;1.30;;
15331;SDS011;7766;51.534;6.722;2022-11-15T13:54:01;4.10;;;1.17;;
15331;SDS011;7766;51.534;6.722;2022-11-15T13:55:13;1.50;;;0.80;;
15331;SDS011;7766;51.534;6.722;2022-11-15T13:56:17;3.97;;;1.20;;
15331;SDS011;7766;51.534;6.722;2022-11-15T13:57:23;2.53;;;0.80;;
15331;SDS011;7766;51.534;6.722;2022-11-15T13:58:29;4.10;;;0.90;;
15331;SDS011;7766;51.534;6.722;2022-11-15T13:59:31;6.37;;;0.90;;
15331;SDS011;7766;51.534;6.722;2022-11-15T14:01:44;4.10;;;0.70;;
15331;SDS011;7766;51.534;6.722;2022-11-15T14:02:45;3.87;;;1.00;;
15331;SDS011;7766;51.534;6.722;2022-11-15T14:03:48;3.47;;;1.00;;
15331;SDS011;7766;51.534;6.722;2022-11-15T14:04:56;3.10;;;1.10;;
15331;SDS011;7766;51.534;6.722;2022-11-15T14:07:20;2.00;;;1.13;;
15331;SDS011;7766;51.534;6.722;2022-11-15T14:08:23;2.07;;;1.00;;
15331;SDS011;7766;51.534;6.722;2022-11-15T14:10:34;2.63;;;0.90;;
15331;SDS011;7766;51.534;6.722;2022-11-15T14:11:37;2.80;;;1.10;;
15331;SDS011;7766;51.534;6.722;2022-11-15T14:12:50;5.10;;;1.10;;
15331;SDS011;7766;51.534;6.722;2022-11-15T14:15:29;3.23;;;1.03;;
15331;SDS011;7766;51.534;6.722;2022-11-15T14:16:34;1.37;;;0.73;;
15331;SDS011;7766;51.534;6.722;2022-11-15T14:17:40;2.53;;;1.00;;
15331;SDS011;7766;51.534;6.722;2022-11-15T14:18:43;2.23;;;0.87;;
15331;SDS011;7766;51.534;6.722;2022-11-15T14:19:46;5.00;;;1.10;;
15331;SDS011;7766;51.534;6.722;2022-11-15T14:20:47;6.10;;;1.20;;
15331;SDS011;7766;51.534;6.722;2022-11-15T14:24:29;14.03;;;6.57;;
15331;SDS011;7766;51.534;6.722;2022-11-15T14:25:34;9.13;;;4.50;;
15331;SDS011;7766;51.534;6.722;2022-11-15T14:26:35;19.90;;;11.67;;
15331;SDS011;7766;51.534;6.722;2022-11-15T14:27:36;3.33;;;1.40;;
15331;SDS011;7766;51.534;6.722;2022-11-15T14:28:37;4.33;;;1.10;;
15331;SDS011;7766;51.534;6.722;2022-11-15T14:29:39;1.90;;;1.10;;
15331;SDS011;7766;51.534;6.722;2022-11-15T14:30:40;3.10;;;1.10;;
15331;SDS011;7766;51.534;6.722;2022-11-15T14:31:43;1.60;;;1.00;;
15331;SDS011;7766;51.534;6.722;2022-11-15T14:32:49;3.13;;;1.10;;
15331;SDS011;7766;51.534;6.722;2022-11-15T14:33:51;3.33;;;0.83;;
15331;SDS011;7766;51.534;6.722;2022-11-15T14:35:58;1.80;;;0.93;;
15331;SDS011;7766;51.534;6.722;2022-11-15T14:38:25;2.47;;;1.10;;
15331;SDS011;7766;51.534;6.722;2022-11-15T14:39:26;4.97;;;1.17;;
15331;SDS011;7766;51.534;6.722;2022-11-15T14:40:27;3.50;;;1.00;;
15331;SDS011;7766;51.534;6.722;2022-11-15T14:41:27;5.90;;;1.30;;
15331;SDS011;7766;51.534;6.722;2022-11-15T14:42:32;2.57;;;1.00;;
15331;SDS011;7766;51.534;6.722;2022-11-15T14:43:33;3.17;;;1.10;;
15331;SDS011;7766;51.534;6.722;2022-11-15T14:44:34;4.47;;;1.37;;
15331;SDS011;7766;51.534;6.722;2022-11-15T14:45:35;2.33;;;0.97;;
15331;SDS011;7766;51.534;6.722;2022-11-15T14:46:36;2.77;;;1.37;;
15331;SDS011;7766;51.534;6.722;2022-11-15T14:47:37;1.53;;;0.97;;
15331;SDS011;7766;51.534;6.722;2022-11-15T14:48:38;4.07;;;0.97;;
15331;SDS011;7766;51.534;6.722;2022-11-15T14:49:39;2.83;;;1.10;;
15331;SDS011;7766;51.534;6.722;2022-11-15T14:50:41;3.70;;;1.20;;
15331;SDS011;7766;51.534;6.722;2022-11-15T14:51:43;4.27;;;1.23;;
15331;SDS011;7766;51.534;6.722;2022-11-15T14:52:44;5.40;;;1.07;;
15331;SDS011;7766;51.534;6.722;2022-11-15T14:53:46;3.97;;;1.20;;
15331;SDS011;7766;51.534;6.722;2022-11-15T14:54:47;4.27;;;1.60;;
15331;SDS011;7766;51.534;6.722;2022-11-15T14:55:48;3.43;;;1.13;;
15331;SDS011;7766;51.534;6.722;2022-11-15T14:56:49;2.00;;;1.07;;
15331;SDS011;7766;51.534;6.722;2022-11-15T14:57:50;3.43;;;1.07;;
15331;SDS011;7766;51.534;6.722;2022-11-15T14:58:55;2.73;;;0.90;;
15331;SDS011;7766;51.534;6.722;2022-11-15T14:59:56;1.50;;;0.97;;
15331;SDS011;7766;51.534;6.722;2022-11-15T15:00:56;2.27;;;0.90;;
15331;SDS011;7766;51.534;6.722;2022-11-15T15:01:57;5.83;;;1.67;;
15331;SDS011;7766;51.534;6.722;2022-11-15T15:02:59;2.80;;;1.13;;
15331;SDS011;7766;51.534;6.722;2022-11-15T15:04:00;3.00;;;1.27;;
15331;SDS011;7766;51.534;6.722;2022-11-15T15:05:07;1.97;;;1.10;;
15331;SDS011;7766;51.534;6.722;2022-11-15T15:06:21;1.63;;;1.00;;
15331;SDS011;7766;51.534;6.722;2022-11-15T15:07:22;1.50;;;1.40;;
15331;SDS011;7766;51.534;6.722;2022-11-15T15:08:23;2.27;;;1.20;;
15331;SDS011;7766;51.534;6.722;2022-11-15T15:09:24;2.00;;;1.17;;
15331;SDS011;7766;51.534;6.722;2022-11-15T15:10:25;2.90;;;1.03;;
15331;SDS011;7766;51.534;6.722;2022-11-15T15:11:31;1.80;;;1.20;;
15331;SDS011;7766;51.534;6.722;2022-11-15T15:12:32;3.63;;;1.40;;
15331;SDS011;7766;51.534;6.722;2022-11-15T15:13:33;2.90;;;1.00;;
15331;SDS011;7766;51.534;6.722;2022-11-15T15:14:34;3.83;;;1.47;;
15331;SDS011;7766;51.534;6.722;2022-11-15T15:15:36;1.67;;;1.20;;
15331;SDS011;7766;51.534;6.722;2022-11-15T15:16:37;5.87;;;1.17;;
15331;SDS011;7766;51.534;6.722;2022-11-15T15:17:38;2.60;;;1.50;;